Historyczne dane pomiarowe

Dodano dane terminowe – wersja testowa.

Dane z okresu 1951-2019

Wersja bazy: 1.34 [2019-03-16, lista zmian], aktualizacja planowana na 2019-04-15

Dane meteo z obszaru Polski uzyskane na podstawie danych udostępnionych przez Instytut Meteorologii i Gospodarki Wodnej – Państwowy Instytut Badawczy.

 

Wybierz Datę:    

       

TemperaturaWilgotnośćZachmurzenieWiatrCiśnienieWidzialnośćZjawiska
 Data    tng td wb rh cc ccl cl cm ch dir g1 g2 mslp ppp      
1999-08-09 00:00:00 20.5--- 16.8 18.179wxwx2wx--1004.5 963.6 0.0---wx
1999-08-09 01:00:00 20.1--- 16.2 17.678wxwx1wx--1004.9 964.0----wx
1999-08-09 02:00:00 18.7--- 15.8 16.984wxwx0wx--1005.5 964.3----wx
1999-08-09 03:00:00 19.0--- 15.5 16.880wxwxwxwx0wx--1006.1 965.0----wx
1999-08-09 04:00:00 17.3--- 15.4 16.188wxwxwxwxwx0wx--1007.0 965.6----wx
1999-08-09 05:00:00 18.8--- 16.4 17.386wxwxwxwx0wx--1007.0 965.8----wx
1999-08-09 06:00:00 19.2--- 16.4 17.484wxwxwxwx0wx--1007.6 966.4 0.0---wx
1999-08-09 07:00:00 21.8--- 16.7 18.573wxwxwxwx0wx--1007.5 966.7----wx
1999-08-09 08:00:00 23.3--- 16.7 19.066wxwxwxwx0wx--1007.4 966.8----wx
1999-08-09 09:00:00 23.9--- 16.5 19.163wxwxwxwx0wx--1007.4 966.9----wx
1999-08-09 10:00:00 24.6--- 17.1 19.763wxwxwxwx1wx--1007.9 967.4----wx
1999-08-09 11:00:00 23.4--- 17.3 19.469wxwxwxwx1wx--1008.4 967.8----wx
1999-08-09 12:00:00 20.4--- 17.3 18.483wxwxwxwx3wx--1009.5 968.4 0.2---wxw1
1999-08-09 13:00:00 19.0--- 16.2 17.284wxwxwxwx1wx--1009.9 968.6----wxw1
1999-08-09 14:00:00 18.4--- 16.8 17.491wxwxwxwx0wx--1009.7 968.3----wxw1
1999-08-09 15:00:00 20.6--- 17.0 18.380wxwxwxwxwx2wx--1008.7 967.7----wxw1
1999-08-09 16:00:00 21.8--- 15.8 18.069wxwxwxwx2wx--1008.2 967.4----wx
1999-08-09 17:00:00 21.9--- 16.5 18.471wxwxwxwxwx0wx--1007.7 966.9----wx
1999-08-09 18:00:00 19.7--- 16.9 17.984wxwxwxwx1wx--1008.4 967.3 2.8---wxw1
1999-08-09 19:00:00 18.8--- 16.3 17.285wxwxwxwx0wx--1009.1 967.8----wx
1999-08-09 20:00:00 16.1--- 14.8 15.392wxwxwxwx0wx--1009.4 967.7----wx
1999-08-09 21:00:00 15.9--- 15.6 15.798wxwxwx0wx--1008.5 966.8----wx
1999-08-09 22:00:00 15.2--- 14.7 14.997wxwxwx0wx--1009.2 967.4----wxw1
1999-08-09 23:00:00 14.2--- 13.9 14.098wxwx0wx--1010.1 968.1----wxw1

 

Źródłem pochodzenia danych jest Instytut Meteorologii i Gospodarki Wodnej – Państwowy Instytut Badawczy. Dane Instytutu Meteorologii i Gospodarki Wodnej – Państwowego Instytutu Badawczego zostały przetworzone.

Dane źródłowe można odnaleźć na stronie https://dane.imgw.pl